createdAt,value
2018-10-19T00:00:18.024Z,1.20
2018-10-19T00:05:21.511Z,1.20
2018-10-19T00:07:49.814Z,1.30
2018-10-19T00:10:18.067Z,1.50
2018-10-19T00:12:46.202Z,1.50
2018-10-19T00:15:15.151Z,1.37
2018-10-19T00:17:43.239Z,1.73
2018-10-19T00:20:11.455Z,1.50
2018-10-19T00:22:39.695Z,1.40
2018-10-19T00:25:08.164Z,1.10
2018-10-19T00:27:36.281Z,1.50
2018-10-19T00:30:04.870Z,1.27
2018-10-19T00:32:33.491Z,1.67
2018-10-19T00:35:01.702Z,1.30
2018-10-19T00:37:29.785Z,1.40
2018-10-19T00:39:57.949Z,1.30
2018-10-19T00:42:26.118Z,1.17
2018-10-19T00:44:54.287Z,1.27
2018-10-19T00:47:22.539Z,1.30
2018-10-19T00:49:50.647Z,1.30
2018-10-19T00:52:19.100Z,1.20
2018-10-19T00:54:47.203Z,1.10
2018-10-19T00:57:15.548Z,1.60
2018-10-19T00:59:43.714Z,1.20
2018-10-19T01:02:11.914Z,1.27
2018-10-19T01:04:40.074Z,1.37
2018-10-19T01:07:08.794Z,1.30
2018-10-19T01:09:37.003Z,1.60
2018-10-19T01:12:05.543Z,1.40
2018-10-19T01:14:33.735Z,1.43
2018-10-19T01:17:02.084Z,1.37
2018-10-19T01:19:30.150Z,1.20
2018-10-19T01:21:58.319Z,1.40
2018-10-19T01:24:26.482Z,1.27
2018-10-19T01:26:54.632Z,1.10
2018-10-19T01:29:22.741Z,1.17
2018-10-19T01:31:51.331Z,1.37
2018-10-19T01:34:19.794Z,1.10
2018-10-19T01:36:48.371Z,1.20
2018-10-19T01:39:18.576Z,1.30
2018-10-19T01:41:46.995Z,1.00
2018-10-19T01:44:15.412Z,1.30
2018-10-19T01:46:47.948Z,1.30
2018-10-19T01:49:16.874Z,1.10
2018-10-19T01:51:45.292Z,0.90
2018-10-19T01:54:14.107Z,1.20
2018-10-19T01:56:42.820Z,1.10
2018-10-19T01:59:11.317Z,1.50
2018-10-19T02:01:39.727Z,1.20
2018-10-19T02:04:08.179Z,1.20
2018-10-19T02:06:36.598Z,0.90
2018-10-19T02:09:06.443Z,1.30
2018-10-19T02:11:35.103Z,1.30
2018-10-19T02:14:03.526Z,1.50
2018-10-19T02:16:32.062Z,1.23
2018-10-19T02:19:00.465Z,1.47
2018-10-19T02:21:28.988Z,1.20
2018-10-19T02:23:57.412Z,1.33
2018-10-19T02:26:25.874Z,1.33
2018-10-19T02:28:54.349Z,1.47
2018-10-19T02:31:22.787Z,1.37
2018-10-19T02:33:51.220Z,1.10
2018-10-19T02:36:19.624Z,1.20
2018-10-19T02:38:48.197Z,1.50
2018-10-19T02:41:16.658Z,1.13
2018-10-19T02:43:45.092Z,1.23
2018-10-19T02:46:13.507Z,1.43
2018-10-19T02:48:41.934Z,1.00
2018-10-19T02:51:10.384Z,1.20
2018-10-19T02:53:38.760Z,1.30
2018-10-19T02:56:07.203Z,1.13
2018-10-19T02:58:35.633Z,1.50
2018-10-19T03:01:04.151Z,1.30
2018-10-19T03:03:32.576Z,1.50
2018-10-19T03:06:01.031Z,1.17
2018-10-19T03:08:29.434Z,1.10
2018-10-19T03:10:57.964Z,1.30
2018-10-19T03:13:26.454Z,1.30
2018-10-19T03:15:54.869Z,1.30
2018-10-19T03:18:24.076Z,1.40
2018-10-19T03:20:52.500Z,1.50
2018-10-19T03:23:21.013Z,1.27
2018-10-19T03:25:49.414Z,0.90
2018-10-19T03:28:17.950Z,1.43
2018-10-19T03:30:46.379Z,0.97
2018-10-19T03:33:15.261Z,1.30
2018-10-19T03:35:43.784Z,1.03
2018-10-19T03:38:12.175Z,1.30
2018-10-19T03:40:40.680Z,1.03
2018-10-19T03:43:09.124Z,1.40
2018-10-19T03:45:37.740Z,1.40
2018-10-19T03:48:06.156Z,0.93
2018-10-19T03:50:34.558Z,1.50
2018-10-19T03:53:03.002Z,1.10
2018-10-19T03:55:31.448Z,1.27
2018-10-19T03:57:59.871Z,1.10
2018-10-19T04:00:28.052Z,0.80
2018-10-19T04:02:56.421Z,1.60
2018-10-19T04:05:25.231Z,0.90
2018-10-19T04:07:53.604Z,1.03
2018-10-19T04:10:22.215Z,1.07
2018-10-19T04:12:50.343Z,1.00
2018-10-19T04:15:19.259Z,1.27
2018-10-19T04:17:47.417Z,1.23
2018-10-19T04:20:15.576Z,1.33
2018-10-19T04:22:43.721Z,1.13
2018-10-19T04:25:11.835Z,1.10
2018-10-19T04:27:40.003Z,1.10
2018-10-19T04:30:08.384Z,0.90
2018-10-19T04:32:36.501Z,1.27
2018-10-19T04:35:04.814Z,1.20
2018-10-19T04:37:32.918Z,0.90
2018-10-19T04:40:01.024Z,1.20
2018-10-19T04:42:29.197Z,0.80
2018-10-19T04:44:57.482Z,0.93
2018-10-19T04:47:25.613Z,1.40
2018-10-19T04:49:53.723Z,1.20
2018-10-19T04:54:51.959Z,0.90
2018-10-19T04:57:20.860Z,1.17
2018-10-19T04:59:49.440Z,1.20
2018-10-19T05:02:17.620Z,0.90
2018-10-19T05:04:45.862Z,1.00
2018-10-19T05:07:14.733Z,1.27
2018-10-19T05:09:42.908Z,1.13
2018-10-19T05:12:11.052Z,1.30
2018-10-19T05:14:39.770Z,0.97
2018-10-19T05:17:08.007Z,1.23
2018-10-19T05:19:36.253Z,1.30
2018-10-19T05:22:04.478Z,1.17
2018-10-19T05:24:32.643Z,1.13
2018-10-19T05:27:00.941Z,1.17
2018-10-19T05:29:29.464Z,1.13
2018-10-19T05:31:58.050Z,1.20
2018-10-19T05:34:26.478Z,1.33
2018-10-19T05:36:54.960Z,1.50
2018-10-19T05:39:23.114Z,1.30
2018-10-19T05:41:52.234Z,1.20
2018-10-19T05:44:20.360Z,1.00
2018-10-19T05:46:48.591Z,1.33
2018-10-19T05:49:16.971Z,1.37
2018-10-19T05:51:45.931Z,1.40
2018-10-19T05:54:14.101Z,1.10
2018-10-19T05:56:42.283Z,1.13
2018-10-19T05:59:10.496Z,0.80
2018-10-19T06:01:38.622Z,1.20
2018-10-19T06:04:06.826Z,1.10
2018-10-19T06:06:35.015Z,1.30
2018-10-19T06:09:03.287Z,1.03
2018-10-19T06:11:31.443Z,1.07
2018-10-19T06:13:59.651Z,1.63
2018-10-19T06:16:27.808Z,1.50
2018-10-19T06:18:55.924Z,1.10
2018-10-19T06:21:24.147Z,1.10
2018-10-19T06:23:52.294Z,1.63
2018-10-19T06:26:20.552Z,1.30
2018-10-19T06:28:49.635Z,1.50
2018-10-19T06:31:18.071Z,1.17
2018-10-19T06:33:46.294Z,1.23
2018-10-19T06:36:14.417Z,0.93
2018-10-19T06:38:42.672Z,1.17
2018-10-19T06:41:10.925Z,1.43
2018-10-19T06:43:39.689Z,1.10
2018-10-19T06:46:07.949Z,1.20
2018-10-19T06:48:36.094Z,1.07
2018-10-19T06:51:04.211Z,1.00
2018-10-19T06:53:32.565Z,1.30
2018-10-19T06:56:01.330Z,1.03
2018-10-19T06:58:29.454Z,1.63
2018-10-19T07:00:57.959Z,1.40
2018-10-19T07:03:26.070Z,1.20
2018-10-19T07:05:54.255Z,1.40
2018-10-19T07:08:22.573Z,1.20
2018-10-19T07:10:50.730Z,0.97
2018-10-19T07:13:19.159Z,1.27
2018-10-19T07:15:47.774Z,1.40
2018-10-19T07:18:16.186Z,1.73
2018-10-19T07:20:44.334Z,1.30
2018-10-19T07:23:12.973Z,1.47
2018-10-19T07:25:41.396Z,1.20
2018-10-19T07:28:10.084Z,1.10
2018-10-19T07:30:38.860Z,1.20
2018-10-19T07:33:07.294Z,1.40
2018-10-19T07:35:36.632Z,1.47
2018-10-19T07:38:05.668Z,1.50
2018-10-19T07:40:34.040Z,1.30
2018-10-19T07:43:03.011Z,1.70
2018-10-19T07:45:32.254Z,1.30
2018-10-19T07:48:00.826Z,1.27
2018-10-19T07:50:29.259Z,1.20
2018-10-19T07:52:57.797Z,1.23
2018-10-19T07:55:26.278Z,1.53
2018-10-19T07:57:54.770Z,1.50
2018-10-19T08:00:23.315Z,1.33
2018-10-19T08:02:51.846Z,1.20
2018-10-19T08:05:20.311Z,1.50
2018-10-19T08:07:48.922Z,0.97
2018-10-19T08:10:17.131Z,1.50
2018-10-19T08:12:46.401Z,1.43
2018-10-19T08:15:14.913Z,1.87
2018-10-19T08:17:43.466Z,1.40
2018-10-19T08:20:12.028Z,1.50
2018-10-19T08:22:40.474Z,1.53
2018-10-19T08:25:09.054Z,1.30
2018-10-19T08:27:37.230Z,1.27
2018-10-19T08:30:05.516Z,1.67
2018-10-19T08:32:34.052Z,1.77
2018-10-19T08:35:02.740Z,1.37
2018-10-19T08:37:31.357Z,1.53
2018-10-19T08:39:59.851Z,1.47
2018-10-19T08:42:28.312Z,1.70
2018-10-19T08:44:56.796Z,1.43
2018-10-19T08:47:25.320Z,2.00
2018-10-19T08:49:53.797Z,1.63
2018-10-19T08:52:22.231Z,1.67
2018-10-19T08:54:50.787Z,1.57
2018-10-19T08:57:19.261Z,1.77
2018-10-19T08:59:47.803Z,1.60
2018-10-19T09:02:16.371Z,1.53
2018-10-19T09:04:44.833Z,1.77
2018-10-19T09:07:13.359Z,2.20
2018-10-19T09:09:42.242Z,1.90
2018-10-19T09:12:10.769Z,1.77
2018-10-19T09:14:49.224Z,2.10
2018-10-19T09:17:17.625Z,2.20
2018-10-19T09:19:46.123Z,1.57
2018-10-19T09:22:15.147Z,1.80
2018-10-19T09:24:43.641Z,1.77
2018-10-19T09:27:12.756Z,1.90
2018-10-19T09:29:41.157Z,2.10
2018-10-19T09:32:09.747Z,2.00
2018-10-19T09:34:38.189Z,2.00
2018-10-19T09:37:07.541Z,2.20
2018-10-19T09:39:35.956Z,2.07
2018-10-19T09:42:04.434Z,1.80
2018-10-19T09:44:32.904Z,2.00
2018-10-19T09:47:01.359Z,2.50
2018-10-19T09:49:29.847Z,2.17
2018-10-19T09:51:58.308Z,2.07
2018-10-19T09:54:26.798Z,1.90
2018-10-19T09:56:55.229Z,2.10
2018-10-19T09:59:23.666Z,1.97
2018-10-19T10:01:52.084Z,1.80
2018-10-19T10:04:20.490Z,2.30
2018-10-19T10:06:48.924Z,1.63
2018-10-19T10:09:18.062Z,2.10
2018-10-19T10:11:46.496Z,1.93
2018-10-19T10:14:15.108Z,1.87
2018-10-19T10:16:43.572Z,2.17
2018-10-19T10:19:12.070Z,2.17
2018-10-19T10:21:40.619Z,1.83
2018-10-19T10:24:09.044Z,2.13
2018-10-19T10:26:37.543Z,1.83
2018-10-19T10:29:06.643Z,1.77
2018-10-19T10:31:35.344Z,1.60
2018-10-19T10:34:04.068Z,1.60
2018-10-19T10:36:32.634Z,1.37
2018-10-19T10:39:02.108Z,1.50
2018-10-19T10:41:30.434Z,1.57
2018-10-19T10:43:59.060Z,1.60
2018-10-19T10:46:27.483Z,1.47
2018-10-19T10:48:56.126Z,1.60
2018-10-19T10:51:24.530Z,1.60
2018-10-19T10:53:52.960Z,1.83
2018-10-19T10:56:21.734Z,1.90
2018-10-19T10:58:50.361Z,1.37
2018-10-19T11:01:18.804Z,1.73
2018-10-19T11:03:47.255Z,1.70
2018-10-19T11:06:15.827Z,1.60
2018-10-19T11:08:44.274Z,1.77
2018-10-19T11:11:13.859Z,1.57
2018-10-19T11:13:43.113Z,1.80
2018-10-19T11:16:12.691Z,1.63
2018-10-19T11:18:41.362Z,1.97
2018-10-19T11:21:10.895Z,1.73
2018-10-19T11:23:39.519Z,1.80
2018-10-19T11:26:07.931Z,1.33
2018-10-19T11:28:36.365Z,1.70
2018-10-19T11:31:05.408Z,1.90
2018-10-19T11:33:33.853Z,1.73
2018-10-19T11:36:03.199Z,2.17
2018-10-19T11:38:31.688Z,1.70
2018-10-19T11:41:00.144Z,1.63
2018-10-19T11:43:28.596Z,1.70
2018-10-19T11:45:57.030Z,1.87
2018-10-19T11:48:25.541Z,1.70
2018-10-19T11:50:53.975Z,1.80
2018-10-19T11:53:22.409Z,2.03
2018-10-19T11:55:50.859Z,2.20
2018-10-19T11:58:19.396Z,1.67
2018-10-19T12:00:47.780Z,3.10
2018-10-19T12:03:16.221Z,2.33
2018-10-19T12:05:44.664Z,2.20
2018-10-19T12:08:13.123Z,1.93
2018-10-19T12:10:41.652Z,1.90
2018-10-19T12:13:10.110Z,2.10
2018-10-19T12:15:38.605Z,2.03
2018-10-19T12:18:07.200Z,1.93
2018-10-19T12:20:35.662Z,2.33
2018-10-19T12:23:04.199Z,2.10
2018-10-19T12:25:32.761Z,1.80
2018-10-19T12:28:01.199Z,2.27
2018-10-19T12:30:29.671Z,1.73
2018-10-19T12:32:58.157Z,1.50
2018-10-19T12:35:26.688Z,1.60
2018-10-19T12:37:55.112Z,1.93
2018-10-19T12:40:23.603Z,1.70
2018-10-19T12:42:52.075Z,1.57
2018-10-19T12:46:33.829Z,1.63
2018-10-19T12:49:02.864Z,1.73
2018-10-19T12:51:31.342Z,1.73
2018-10-19T12:53:59.923Z,1.63
2018-10-19T12:56:28.385Z,1.83
2018-10-19T12:58:56.959Z,1.70
2018-10-19T13:01:26.767Z,1.60
2018-10-19T13:03:55.271Z,1.67
2018-10-19T13:06:23.796Z,1.40
2018-10-19T13:08:52.735Z,1.67
2018-10-19T13:11:23.573Z,1.60
2018-10-19T13:13:52.170Z,1.80
2018-10-19T13:16:20.639Z,1.50
2018-10-19T13:18:49.128Z,1.80
2018-10-19T13:21:17.566Z,1.80
2018-10-19T13:23:46.048Z,1.50
2018-10-19T13:26:14.483Z,1.93
2018-10-19T13:28:42.974Z,2.03
2018-10-19T13:31:11.403Z,1.90
2018-10-19T13:33:39.979Z,1.93
2018-10-19T13:36:08.494Z,1.87
2018-10-19T13:38:36.951Z,1.83
2018-10-19T13:41:05.650Z,2.30
2018-10-19T13:43:34.081Z,1.90
2018-10-19T13:46:02.626Z,1.80
2018-10-19T13:48:31.799Z,1.90
2018-10-19T13:51:00.534Z,1.80
2018-10-19T13:53:28.922Z,1.80
2018-10-19T13:55:57.345Z,2.20
2018-10-19T13:58:25.954Z,1.73
2018-10-19T14:00:54.351Z,2.07
2018-10-19T14:03:22.855Z,1.93
2018-10-19T14:05:51.347Z,1.77
2018-10-19T14:08:20.262Z,2.20
2018-10-19T14:10:48.839Z,1.90
2018-10-19T14:13:17.348Z,2.10
2018-10-19T14:15:45.877Z,1.70
2018-10-19T14:18:14.324Z,1.80
2018-10-19T14:20:42.772Z,1.80
2018-10-19T14:23:11.568Z,1.90
2018-10-19T14:25:40.041Z,2.10
2018-10-19T14:28:09.085Z,1.90
2018-10-19T14:30:37.744Z,1.80
2018-10-19T14:33:06.457Z,1.90
2018-10-19T14:35:34.847Z,1.70
2018-10-19T14:38:04.092Z,1.80
2018-10-19T14:40:33.227Z,1.83
